Time;durP1;ratioP1;P1;durP2;ratioP2;P2;SDS_P1;SDS_P2;PMS_P1;PMS_P2;Temp;Humidity;BMP_temperature;BMP_pressure;BME280_temperature;BME280_humidity;BME280_pressure;Samples;Min_cycle;Max_cycle;Signal;HPM_P1;HPM_P2
2023/05/05 00:00:00;;;;;;;6.30;4.03;;;;;;;20.09;44.05;101374.97;4952817;28;20038;-69
2023/05/05 00:02:26;;;;;;;6.40;3.90;;;;;;;20.11;44.21;101373.03;4960178;28;20269;-68
2023/05/05 00:04:51;;;;;;;7.00;4.15;;;;;;;20.10;44.29;101376.63;4953635;28;20058;-69
2023/05/05 00:07:17;;;;;;;5.75;3.60;;;;;;;20.08;44.51;101370.66;4955141;28;20058;-70
2023/05/05 00:09:42;;;;;;;6.40;3.60;;;;;;;20.10;44.32;101375.81;4945711;28;20485;-69
2023/05/05 00:12:07;;;;;;;7.25;4.30;;;;;;;20.08;44.50;101383.88;4954886;28;20043;-69
2023/05/05 00:14:33;;;;;;;5.53;4.20;;;;;;;20.08;44.38;101377.75;4954942;28;20073;-68
2023/05/05 00:16:58;;;;;;;6.80;3.83;;;;;;;20.07;44.43;101382.19;4960251;28;20859;-69
2023/05/05 00:19:23;;;;;;;5.28;3.70;;;;;;;20.07;44.58;101391.94;4954605;28;20589;-68
2023/05/05 00:21:49;;;;;;;6.32;3.47;;;;;;;20.09;44.39;101392.63;4953677;28;20458;-68
2023/05/05 00:24:14;;;;;;;5.45;3.70;;;;;;;20.07;44.54;101390.13;4954768;28;20981;-70
2023/05/05 00:26:39;;;;;;;6.63;4.13;;;;;;;20.07;44.57;101390.13;4952562;28;20045;-70
2023/05/05 00:29:04;;;;;;;6.25;3.85;;;;;;;20.07;44.49;101386.63;4947524;28;20034;-70
2023/05/05 00:31:30;;;;;;;6.65;4.10;;;;;;;20.08;44.51;101397.09;4986453;28;20097;-69
2023/05/05 00:33:55;;;;;;;5.43;3.90;;;;;;;20.06;44.44;101379.66;4951745;28;20035;-68
2023/05/05 00:36:20;;;;;;;6.72;3.92;;;;;;;20.05;44.78;101376.19;4956215;28;20387;-68
2023/05/05 00:38:46;;;;;;;7.25;4.28;;;;;;;20.07;44.49;101386.63;4950586;28;20039;-68
2023/05/05 00:41:11;;;;;;;5.70;4.20;;;;;;;20.07;44.86;101389.28;4951855;28;20486;-70
2023/05/05 00:43:36;;;;;;;5.85;4.28;;;;;;;20.06;44.68;101396.41;4956814;28;20063;-69
2023/05/05 00:46:22;;;;;;;7.38;4.63;;;;;;;20.02;44.83;101394.94;4953562;28;20046;-68
2023/05/05 00:48:47;;;;;;;6.00;4.10;;;;;;;20.06;44.71;101399.03;4953688;28;20027;-69
2023/05/05 00:51:15;;;;;;;6.75;4.18;;;;;;;20.05;44.86;101397.34;4952132;28;20042;-69
2023/05/05 00:53:43;;;;;;;6.53;4.10;;;;;;;20.03;44.81;101395.81;4954925;28;20041;-68
2023/05/05 00:56:09;;;;;;;5.82;4.35;;;;;;;20.05;45.08;101404.47;4954928;28;20442;-69
2023/05/05 00:58:35;;;;;;;6.90;4.22;;;;;;;20.02;45.01;101402.06;4954305;28;20096;-69
2023/05/05 01:01:00;;;;;;;5.82;4.35;;;;;;;20.01;45.14;101395.94;4949987;28;20469;-68
2023/05/05 01:03:26;;;;;;;6.28;4.13;;;;;;;20.03;44.69;101396.63;4986125;28;20053;-70
2023/05/05 01:06:19;;;;;;;5.65;4.30;;;;;;;20.03;45.23;101399.28;4953384;28;20039;-69
2023/05/05 01:09:18;;;;;;;5.90;4.13;;;;;;;20.00;45.23;101396.88;4953694;28;20034;-69
2023/05/05 01:12:22;;;;;;;7.90;4.10;;;;;;;20.03;45.12;101401.09;4955698;28;20066;-69
2023/05/05 01:15:25;;;;;;;5.90;4.38;;;;;;;20.01;45.13;101406.50;4954927;28;20069;-69
2023/05/05 01:18:10;;;;;;;6.75;4.57;;;;;;;19.95;45.06;101388.50;4949115;28;20047;-69
2023/05/05 01:20:55;;;;;;;6.43;4.10;;;;;;;20.03;45.15;101401.09;4950907;28;20039;-71
2023/05/05 01:23:50;;;;;;;6.53;4.68;;;;;;;20.03;45.22;101403.75;4958604;28;20046;-69
2023/05/05 01:26:34;;;;;;;6.30;4.30;;;;;;;20.03;45.06;101394.00;4958951;28;20058;-69
2023/05/05 01:29:23;;;;;;;6.38;4.47;;;;;;;20.00;45.50;101382.81;4955217;28;20121;-68
2023/05/05 01:31:52;;;;;;;6.20;4.28;;;;;;;20.01;45.30;101395.94;4955319;28;20053;-68
2023/05/05 01:34:26;;;;;;;6.22;4.40;;;;;;;20.00;45.36;101396.06;4954668;28;20410;-67
2023/05/05 01:36:57;;;;;;;7.03;4.78;;;;;;;19.96;45.62;101394.59;4952115;28;20097;-69
2023/05/05 01:39:27;;;;;;;6.70;4.70;;;;;;;20.00;45.46;101402.19;4945771;28;20400;-68
2023/05/05 01:41:57;;;;;;;6.60;4.40;;;;;;;19.96;45.47;101395.44;4948464;28;20050;-69
2023/05/05 01:44:23;;;;;;;7.13;4.35;;;;;;;20.00;45.39;101401.34;4952899;28;20034;-68
2023/05/05 01:46:50;;;;;;;5.60;4.10;;;;;;;19.96;45.46;101384.03;4952850;28;20110;-69
2023/05/05 01:49:16;;;;;;;7.05;4.35;;;;;;;19.98;45.43;101392.66;4958085;28;20058;-69
2023/05/05 01:51:42;;;;;;;6.65;4.45;;;;;;;19.99;45.49;101402.31;4949091;28;20129;-68
2023/05/05 01:54:09;;;;;;;6.57;4.40;;;;;;;19.97;45.69;101396.31;4942611;28;20497;-69
2023/05/05 01:56:38;;;;;;;6.43;4.50;;;;;;;19.97;45.64;101407.72;4955596;28;20249;-69
2023/05/05 01:59:05;;;;;;;8.13;4.80;;;;;;;19.96;45.66;101403.38;4960316;28;20066;-69
2023/05/05 02:01:36;;;;;;;7.68;4.90;;;;;;;19.95;45.81;101399.06;4953995;28;20540;-69
2023/05/05 02:04:03;;;;;;;7.97;4.70;;;;;;;19.97;45.71;101401.59;4954679;28;20045;-69
2023/05/05 02:06:31;;;;;;;6.47;4.57;;;;;;;19.96;45.55;101402.53;4952887;28;20039;-69
2023/05/05 02:08:57;;;;;;;6.30;4.20;;;;;;;19.98;45.57;101409.41;4943185;28;20063;-69
2023/05/05 02:11:23;;;;;;;6.35;4.80;;;;;;;19.94;45.47;101403.50;4942686;28;20071;-69
2023/05/05 02:13:50;;;;;;;6.82;4.80;;;;;;;19.96;45.66;101408.66;4956534;28;20043;-69
2023/05/05 02:16:17;;;;;;;6.43;4.70;;;;;;;19.94;45.69;101406.13;4946917;28;20425;-69
2023/05/05 02:18:45;;;;;;;6.35;5.25;;;;;;;19.94;45.67;101411.44;4944584;28;20045;-69
2023/05/05 02:21:13;;;;;;;6.30;4.70;;;;;;;19.93;45.59;101412.41;4959461;28;20745;-69
2023/05/05 02:23:38;;;;;;;6.70;5.10;;;;;;;19.94;45.63;101414.06;4953196;28;20035;-68
2023/05/05 02:26:06;;;;;;;6.32;4.60;;;;;;;19.91;45.62;101414.31;4954901;28;20855;-69
2023/05/05 02:28:53;;;;;;;7.03;4.97;;;;;;;19.93;45.83;101420.34;4966222;28;20023;-68
2023/05/05 02:31:22;;;;;;;7.43;5.13;;;;;;;19.93;45.83;101428.28;4946583;28;20456;-68
2023/05/05 02:33:49;;;;;;;6.32;4.80;;;;;;;19.93;45.93;101425.63;4992359;28;20372;-69
2023/05/05 02:36:27;;;;;;;6.47;4.78;;;;;;;19.94;45.74;101431.75;4959484;28;20026;-69
2023/05/05 02:38:58;;;;;;;6.68;4.97;;;;;;;19.92;45.50;101431.06;4964486;28;20039;-69
2023/05/05 02:41:25;;;;;;;8.05;5.20;;;;;;;19.91;45.61;101430.19;4959717;28;20042;-69
2023/05/05 02:43:53;;;;;;;7.15;5.20;;;;;;;19.92;45.74;101444.28;4957272;28;20042;-69
2023/05/05 02:46:18;;;;;;;6.20;4.68;;;;;;;19.94;45.69;101443.19;4946654;28;20137;-70
2023/05/05 02:48:44;;;;;;;6.30;4.95;;;;;;;19.92;45.67;101446.94;4946418;28;20384;-70
2023/05/05 02:51:09;;;;;;;7.57;4.93;;;;;;;19.91;45.47;101443.41;4955585;28;20027;-69
2023/05/05 02:53:35;;;;;;;7.63;5.05;;;;;;;19.91;45.79;101440.78;4965355;28;20499;-69
2023/05/05 02:56:29;;;;;;;7.63;4.85;;;;;;;19.92;45.82;101444.28;4965326;28;20027;-69
2023/05/05 02:59:06;;;;;;;5.65;4.68;;;;;;;19.90;45.54;101435.59;4971782;28;20089;-67
2023/05/05 03:01:53;;;;;;;7.35;5.00;;;;;;;19.92;45.44;101444.28;4959450;28;20118;-69
2023/05/05 03:04:44;;;;;;;6.25;4.60;;;;;;;19.92;45.78;101441.63;4965023;28;20042;-69
2023/05/05 03:07:18;;;;;;;7.15;4.95;;;;;;;19.90;45.49;101432.97;4945847;28;20050;-68
2023/05/05 03:10:02;;;;;;;6.43;4.85;;;;;;;19.88;45.39;101430.44;4946461;28;20035;-69
2023/05/05 03:12:33;;;;;;;6.55;5.15;;;;;;;19.89;45.50;101434.78;4963596;28;20158;-69
2023/05/05 03:15:00;;;;;;;6.72;5.00;;;;;;;19.90;45.44;101439.09;4956797;28;20149;-68
2023/05/05 03:17:28;;;;;;;6.13;4.70;;;;;;;19.89;45.38;101440.06;4952566;28;20035;-70
2023/05/05 03:19:54;;;;;;;6.72;4.75;;;;;;;19.89;45.97;101441.88;4962448;28;20121;-69
2023/05/05 03:22:19;;;;;;;6.03;4.90;;;;;;;19.90;45.86;101451.47;4945274;28;20517;-69
2023/05/05 03:24:49;;;;;;;6.50;4.72;;;;;;;19.87;45.60;101451.75;4945730;28;20091;-69
2023/05/05 03:27:15;;;;;;;6.32;5.00;;;;;;;19.89;45.58;101461.22;4963486;28;20046;-69
2023/05/05 03:29:40;;;;;;;7.32;5.25;;;;;;;19.87;45.56;101454.41;4964733;28;20039;-68
2023/05/05 03:32:06;;;;;;;7.18;5.13;;;;;;;19.87;45.76;101457.03;4964302;28;20066;-69
2023/05/05 03:34:31;;;;;;;7.07;5.30;;;;;;;19.87;45.44;101462.31;4951369;28;20090;-68
2023/05/05 03:36:57;;;;;;;7.07;5.03;;;;;;;19.86;45.63;101450.88;4947049;28;20043;-69
2023/05/05 03:39:22;;;;;;;6.65;4.85;;;;;;;19.89;45.44;101452.47;4946676;28;20039;-69
2023/05/05 03:41:48;;;;;;;6.55;4.70;;;;;;;19.88;45.38;101448.94;4945543;28;20039;-69
2023/05/05 03:44:13;;;;;;;5.97;4.78;;;;;;;19.87;45.73;101455.22;4945616;28;20030;-68
2023/05/05 03:46:38;;;;;;;7.25;5.20;;;;;;;19.85;45.45;101462.44;4949685;28;20035;-69
2023/05/05 03:49:04;;;;;;;6.18;4.85;;;;;;;19.86;45.38;101466.75;4945608;28;20105;-68
2023/05/05 03:51:30;;;;;;;7.43;5.10;;;;;;;19.86;45.46;101463.28;4949351;28;20034;-68
2023/05/05 03:53:55;;;;;;;6.22;4.88;;;;;;;19.86;45.30;101464.09;4964703;28;20038;-68
2023/05/05 03:56:21;;;;;;;6.57;4.88;;;;;;;19.85;45.47;101464.22;4953318;28;20582;-69
2023/05/05 03:58:46;;;;;;;7.40;4.95;;;;;;;19.86;45.41;101468.56;4956004;28;20045;-69
2023/05/05 04:01:11;;;;;;;5.97;4.43;;;;;;;19.84;45.68;101467.84;4947365;28;20031;-68
2023/05/05 04:03:37;;;;;;;7.10;4.75;;;;;;;19.87;45.43;101472.91;4963709;28;20038;-70
2023/05/05 04:06:03;;;;;;;6.28;4.70;;;;;;;19.85;45.44;101474.81;4961611;28;20544;-69
2023/05/05 04:08:28;;;;;;;7.13;5.05;;;;;;;19.84;45.50;101466.03;4950093;28;20031;-68
2023/05/05 04:10:53;;;;;;;6.50;4.60;;;;;;;19.85;45.38;101466.88;4957936;28;20369;-69
2023/05/05 04:13:19;;;;;;;6.30;4.43;;;;;;;19.84;45.34;101470.50;4960975;28;20260;-69
2023/05/05 04:15:45;;;;;;;7.20;4.38;;;;;;;19.84;45.53;101473.16;4992353;28;20030;-69
2023/05/05 04:18:10;;;;;;;7.07;4.40;;;;;;;19.83;45.32;101472.28;4963961;28;20039;-69
2023/05/05 04:20:35;;;;;;;6.43;4.65;;;;;;;19.84;45.39;101484.56;4945936;28;20031;-69
2023/05/05 04:23:01;;;;;;;5.78;4.28;;;;;;;19.85;45.19;101480.09;4946304;28;20031;-68
2023/05/05 04:25:26;;;;;;;5.57;4.38;;;;;;;19.83;45.25;101477.56;4952237;28;20059;-69
2023/05/05 04:27:51;;;;;;;5.90;4.22;;;;;;;19.78;45.36;101469.16;4957707;28;20047;-69
2023/05/05 04:30:16;;;;;;;6.05;4.40;;;;;;;19.84;45.73;101478.44;4944491;28;20039;-69
2023/05/05 04:32:42;;;;;;;7.10;4.65;;;;;;;19.84;45.31;101483.72;4994132;28;21202;-69
2023/05/05 04:35:07;;;;;;;6.32;4.25;;;;;;;19.82;45.35;101490.91;4963471;28;20488;-69
2023/05/05 04:37:32;;;;;;;5.97;4.53;;;;;;;19.82;45.21;101486.50;4958646;28;20112;-69
2023/05/05 04:39:58;;;;;;;5.13;3.83;;;;;;;19.80;45.31;101483.09;4959273;28;20072;-69
2023/05/05 04:42:23;;;;;;;5.57;4.20;;;;;;;19.79;45.21;101484.09;4963424;28;20625;-69
2023/05/05 04:44:48;;;;;;;5.68;4.25;;;;;;;19.81;45.37;101484.81;4959846;28;20165;-69
2023/05/05 04:47:13;;;;;;;7.70;4.30;;;;;;;19.82;45.30;101488.28;4944624;28;20392;-69
2023/05/05 04:49:39;;;;;;;5.97;4.60;;;;;;;19.81;45.30;101490.09;4946096;28;20452;-71
2023/05/05 04:52:05;;;;;;;6.38;4.40;;;;;;;19.80;45.38;101491.03;4949833;28;20383;-69
2023/05/05 04:54:35;;;;;;;6.53;4.25;;;;;;;19.80;45.43;101487.56;4953246;28;20026;-69
2023/05/05 04:57:01;;;;;;;6.85;4.13;;;;;;;19.80;45.22;101483.09;4960207;28;20062;-68
2023/05/05 04:59:26;;;;;;;6.18;4.45;;;;;;;19.80;45.26;101477.81;4947141;28;20035;-69
2023/05/05 05:01:51;;;;;;;5.85;4.07;;;;;;;19.80;45.21;101483.09;4955369;28;20035;-69
2023/05/05 05:04:17;;;;;;;5.88;4.22;;;;;;;19.79;45.34;101480.56;4958626;28;20090;-68
2023/05/05 05:06:43;;;;;;;6.43;4.40;;;;;;;19.79;45.37;101470.88;4960590;28;20030;-67
2023/05/05 05:09:08;;;;;;;5.43;4.25;;;;;;;19.76;45.18;101473.75;4947535;28;20491;-68
2023/05/05 05:11:34;;;;;;;5.23;4.17;;;;;;;19.76;45.33;101471.09;4989817;28;20035;-69
2023/05/05 05:13:59;;;;;;;5.43;3.97;;;;;;;19.78;45.39;101471.81;4974694;28;20269;-69
2023/05/05 05:16:25;;;;;;;5.80;4.15;;;;;;;19.75;45.18;101464.91;4959623;28;20061;-69
2023/05/05 05:18:50;;;;;;;6.20;3.90;;;;;;;19.76;45.19;101468.47;4961883;28;20385;-69
2023/05/05 05:21:15;;;;;;;5.88;4.20;;;;;;;19.77;45.15;101469.28;4943499;28;20086;-69
2023/05/05 05:23:40;;;;;;;5.07;3.57;;;;;;;19.78;45.30;101468.34;4943271;28;20413;-68
2023/05/05 05:26:06;;;;;;;5.97;4.00;;;;;;;19.75;45.36;101470.22;4954704;28;20356;-69
2023/05/05 05:28:31;;;;;;;5.75;3.80;;;;;;;19.76;45.34;101473.75;4961833;28;20039;-68
2023/05/05 05:30:56;;;;;;;5.60;3.90;;;;;;;19.74;45.36;101471.19;4957308;28;20034;-70
2023/05/05 05:33:22;;;;;;;5.57;3.83;;;;;;;19.75;45.44;101472.84;4943221;28;20257;-69
2023/05/05 05:35:47;;;;;;;5.22;3.70;;;;;;;19.74;45.27;101484.41;4961769;28;20141;-69
2023/05/05 05:38:12;;;;;;;6.03;4.20;;;;;;;19.74;45.31;101483.53;4958271;28;20460;-69
2023/05/05 05:40:38;;;;;;;5.10;3.75;;;;;;;19.70;45.33;101482.13;4961522;28;20046;-68
2023/05/05 05:43:03;;;;;;;5.45;3.30;;;;;;;19.73;45.39;101493.28;4962277;28;20039;-69
2023/05/05 05:45:28;;;;;;;5.67;3.53;;;;;;;19.74;45.33;101508.22;4993245;28;20128;-69
2023/05/05 05:47:53;;;;;;;5.95;3.70;;;;;;;19.74;45.07;101517.94;4951465;28;20268;-69
2023/05/05 05:50:19;;;;;;;5.83;3.80;;;;;;;19.71;45.05;101515.53;4977821;28;20042;-69
2023/05/05 05:52:45;;;;;;;5.53;3.60;;;;;;;19.75;45.27;101538.13;4957545;28;20912;-69
2023/05/05 05:55:10;;;;;;;6.78;3.70;;;;;;;19.75;45.15;101538.97;4976488;28;20543;-69
2023/05/05 05:57:35;;;;;;;4.93;3.40;;;;;;;19.77;45.12;101541.53;4944485;28;20035;-69
2023/05/05 06:00:01;;;;;;;6.30;3.60;;;;;;;19.76;45.19;101539.88;4945010;28;20393;-69
2023/05/05 06:02:26;;;;;;;5.18;3.45;;;;;;;19.77;45.28;101551.28;4943175;28;20086;-70
2023/05/05 06:04:51;;;;;;;5.50;3.40;;;;;;;19.78;45.07;101560.91;4943291;28;20035;-69
2023/05/05 06:07:17;;;;;;;5.28;3.45;;;;;;;19.77;45.12;101560.03;4943483;28;20146;-69
2023/05/05 06:09:42;;;;;;;4.90;3.25;;;;;;;19.77;45.01;101560.03;4943149;28;20098;-70
2023/05/05 06:12:07;;;;;;;5.10;3.10;;;;;;;19.74;44.91;101555.81;4943878;28;20058;-68
2023/05/05 06:14:33;;;;;;;5.25;2.97;;;;;;;19.77;44.96;101562.69;4975023;28;20699;-68
2023/05/05 06:16:58;;;;;;;4.78;2.90;;;;;;;19.77;44.94;101562.69;4976980;28;20738;-69
2023/05/05 06:19:23;;;;;;;6.57;3.10;;;;;;;19.77;44.91;101564.50;4962037;28;20080;-68
2023/05/05 06:21:49;;;;;;;4.57;2.97;;;;;;;19.78;44.76;101574.13;4962064;28;20042;-68
2023/05/05 06:24:15;;;;;;;4.47;2.75;;;;;;;19.78;44.77;101574.13;4947287;28;20404;-69
2023/05/05 06:26:40;;;;;;;4.47;2.90;;;;;;;19.77;45.05;101567.13;4943346;28;20042;-69
2023/05/05 06:29:05;;;;;;;4.60;2.70;;;;;;;19.79;44.82;101568.72;4952883;28;20092;-70
2023/05/05 06:31:31;;;;;;;4.38;3.00;;;;;;;19.79;44.95;101562.56;4951161;28;20033;-69
2023/05/05 06:33:56;;;;;;;4.15;2.65;;;;;;;19.78;44.77;101563.53;4949176;28;20031;-70
2023/05/05 06:36:21;;;;;;;4.20;2.60;;;;;;;19.78;44.91;101563.53;4949524;28;20455;-69
2023/05/05 06:38:46;;;;;;;4.38;2.80;;;;;;;19.80;45.07;101562.44;4962430;28;20273;-69
2023/05/05 06:41:12;;;;;;;4.53;2.97;;;;;;;19.81;44.92;101563.31;4957106;28;20126;-68
2023/05/05 06:43:38;;;;;;;4.55;2.75;;;;;;;19.77;45.02;101560.03;4975739;28;20277;-69
2023/05/05 06:46:03;;;;;;;4.15;2.63;;;;;;;19.79;45.03;101562.56;4973825;28;20071;-69
2023/05/05 06:48:28;;;;;;;4.57;3.00;;;;;;;19.77;45.03;101557.41;4973824;28;20124;-69
2023/05/05 06:50:55;;;;;;;5.15;3.17;;;;;;;19.81;45.25;101564.16;4944603;28;20027;-69
2023/05/05 06:53:20;;;;;;;5.53;2.95;;;;;;;19.79;45.10;101565.22;4959821;28;20054;-69
2023/05/05 06:55:46;;;;;;;5.10;2.92;;;;;;;19.80;45.08;101573.03;4951142;28;20456;-69
2023/05/05 06:58:11;;;;;;;4.72;2.97;;;;;;;19.80;44.99;101572.19;4942342;28;20118;-69
2023/05/05 07:00:38;;;;;;;4.75;2.60;;;;;;;19.80;45.30;101575.66;4945220;28;20476;-70
2023/05/05 07:03:03;;;;;;;5.35;2.90;;;;;;;19.81;45.33;101573.88;4945555;28;20042;-69
2023/05/05 07:05:28;;;;;;;4.50;2.85;;;;;;;19.81;45.20;101572.06;4950303;28;20035;-69
2023/05/05 07:07:55;;;;;;;4.22;2.90;;;;;;;19.81;45.41;101573.88;4956160;28;20126;-69
2023/05/05 07:10:21;;;;;;;4.38;2.83;;;;;;;19.81;45.15;101574.72;4962315;28;20035;-69
2023/05/05 07:12:47;;;;;;;4.45;2.65;;;;;;;19.83;45.45;101578.09;4945932;28;20040;-68
2023/05/05 07:15:13;;;;;;;5.63;2.83;;;;;;;19.84;45.89;101582.44;4950450;28;20054;-68
2023/05/05 07:17:39;;;;;;;4.82;3.13;;;;;;;19.84;45.65;101585.06;4947305;28;20730;-69
2023/05/05 07:20:06;;;;;;;5.18;3.13;;;;;;;19.83;46.28;101580.72;4951175;28;20456;-69
2023/05/05 07:22:31;;;;;;;9.98;2.92;;;;;;;19.87;46.39;101578.72;4978928;28;20047;-68
2023/05/05 07:24:57;;;;;;;5.23;2.80;;;;;;;19.85;46.49;101577.97;4949504;28;20070;-68
2023/05/05 07:27:22;;;;;;;4.60;2.73;;;;;;;19.88;46.46;101593.59;4959783;28;20332;-67
2023/05/05 07:29:47;;;;;;;5.93;3.00;;;;;;;19.89;46.93;101590.00;4949932;28;20303;-68
2023/05/05 07:32:13;;;;;;;4.53;2.85;;;;;;;19.89;46.99;101585.56;4946259;28;20063;-68
2023/05/05 07:34:39;;;;;;;6.35;3.08;;;;;;;19.89;47.14;101582.06;4955463;28;20854;-68
2023/05/05 07:37:05;;;;;;;4.30;2.70;;;;;;;19.88;47.27;101578.56;4956756;28;20484;-68
2023/05/05 07:39:30;;;;;;;6.00;2.80;;;;;;;19.90;47.29;101581.94;4963751;28;20122;-68
2023/05/05 07:41:55;;;;;;;5.60;2.85;;;;;;;19.87;47.36;101571.59;4946008;28;20180;-69
2023/05/05 07:44:20;;;;;;;5.57;2.90;;;;;;;19.90;47.48;101570.50;4953720;28;20117;-68
2023/05/05 07:46:46;;;;;;;4.57;2.63;;;;;;;19.90;47.74;101565.22;4956719;28;20773;-69
2023/05/05 07:49:11;;;;;;;5.15;2.47;;;;;;;19.93;47.59;101572.91;4957338;28;20038;-66
2023/05/05 07:51:37;;;;;;;4.10;2.50;;;;;;;19.94;47.26;101564.88;4944411;28;20039;-69
2023/05/05 07:54:02;;;;;;;4.53;2.60;;;;;;;19.97;47.62;101573.56;4962234;28;20518;-69
2023/05/05 07:56:27;;;;;;;4.93;2.72;;;;;;;19.96;47.63;101561.28;4963637;28;20403;-69
2023/05/05 07:58:53;;;;;;;6.23;2.67;;;;;;;19.99;47.69;101561.88;4984877;28;20121;-69
2023/05/05 08:01:18;;;;;;;6.65;2.50;;;;;;;20.02;47.82;101558.16;4962738;28;20311;-69
2023/05/05 08:03:44;;;;;;;4.47;2.60;;;;;;;20.00;48.37;101560.09;4957582;28;20027;-68
2023/05/05 08:06:09;;;;;;;4.60;2.53;;;;;;;20.02;48.23;101566.09;4964237;28;20086;-68
2023/05/05 08:08:35;;;;;;;8.48;2.80;;;;;;;20.03;47.94;101560.69;4963877;28;20042;-66
2023/05/05 08:11:01;;;;;;;4.93;2.35;;;;;;;20.04;48.27;101566.81;4949429;28;20476;-68
2023/05/05 08:13:29;;;;;;;5.22;2.33;;;;;;;20.05;48.21;101565.84;4954401;28;20042;-69
2023/05/05 08:15:54;;;;;;;5.38;2.67;;;;;;;20.06;48.25;101573.66;4950316;28;20395;-70
2023/05/05 08:18:19;;;;;;;5.20;2.53;;;;;;;20.07;48.29;101583.28;4959833;28;20042;-69
2023/05/05 08:20:45;;;;;;;6.68;2.70;;;;;;;20.05;48.40;101571.13;4944577;28;20499;-69
2023/05/05 08:23:10;;;;;;;4.60;2.53;;;;;;;20.07;48.73;101571.84;4963068;28;20034;-69
2023/05/05 08:25:36;;;;;;;7.03;2.70;;;;;;;20.09;48.43;101572.56;4962450;28;20055;-69
2023/05/05 08:28:01;;;;;;;4.82;2.30;;;;;;;20.09;48.35;101580.50;4964049;28;20108;-68
2023/05/05 08:30:26;;;;;;;5.78;2.20;;;;;;;20.09;48.25;101580.50;4945890;28;20041;-66
2023/05/05 08:32:52;;;;;;;4.60;2.15;;;;;;;20.11;48.39;101586.53;4953308;28;20075;-66
2023/05/05 08:35:18;;;;;;;5.03;2.20;;;;;;;20.10;48.16;101580.38;4948066;28;20165;-66
2023/05/05 08:37:44;;;;;;;7.40;2.28;;;;;;;20.16;47.78;101580.91;4947324;28;20310;-68
2023/05/05 08:40:13;;;;;;;5.63;2.10;;;;;;;20.21;47.63;101574.25;4943761;28;20049;-68
2023/05/05 08:42:39;;;;;;;4.63;2.10;;;;;;;20.29;47.35;101582.44;4943403;28;20041;-69
2023/05/05 08:45:06;;;;;;;9.35;4.00;;;;;;;20.29;47.35;101582.44;4952394;28;20098;-68
2023/05/05 08:47:33;;;;;;;4.47;2.20;;;;;;;20.23;47.36;101580.25;4950061;28;20035;-67
2023/05/05 08:49:59;;;;;;;6.43;2.30;;;;;;;20.23;47.20;101580.25;4958586;28;20377;-69
2023/05/05 08:52:29;;;;;;;5.30;2.13;;;;;;;20.25;47.23;101585.44;4945655;28;20185;-66
2023/05/05 08:55:03;;;;;;;5.28;2.30;;;;;;;20.21;47.66;101581.38;4945836;28;20034;-67
2023/05/05 08:57:50;;;;;;;4.53;1.95;;;;;;;20.19;47.13;101583.31;4989040;28;20062;-67
2023/05/05 09:00:18;;;;;;;4.18;2.10;;;;;;;20.25;47.21;101581.00;4955731;28;20042;-68
2023/05/05 09:02:45;;;;;;;5.72;2.17;;;;;;;20.22;46.89;101573.31;4951741;28;20090;-66
2023/05/05 09:05:10;;;;;;;5.57;2.28;;;;;;;20.21;47.15;101578.72;4949637;28;20035;-67
2023/05/05 09:07:37;;;;;;;4.85;2.70;;;;;;;20.19;47.29;101572.72;4953467;28;20112;-65
2023/05/05 09:10:04;;;;;;;5.72;2.13;;;;;;;20.15;47.26;101573.91;4953600;28;20036;-68
2023/05/05 09:12:30;;;;;;;3.47;2.00;;;;;;;20.15;47.26;101573.91;4954248;28;20118;-67
2023/05/05 09:14:55;;;;;;;4.53;2.00;;;;;;;20.16;47.31;101580.91;4951760;28;20067;-67
2023/05/05 09:17:25;;;;;;;6.18;1.90;;;;;;;20.16;47.31;101587.03;4953833;28;20489;-66
2023/05/05 09:20:11;;;;;;;5.47;2.00;;;;;;;20.16;47.05;101578.25;4953817;28;20038;-66
2023/05/05 09:22:38;;;;;;;5.07;1.95;;;;;;;20.17;46.36;101580.78;4953466;28;20077;-65
2023/05/05 09:25:05;;;;;;;5.35;1.90;;;;;;;20.16;46.08;101594.13;4945463;28;20144;-65
2023/05/05 09:27:39;;;;;;;3.83;1.95;;;;;;;20.17;46.37;101591.34;4948159;28;20126;-64
2023/05/05 09:30:06;;;;;;;4.70;1.98;;;;;;;20.18;46.53;101592.19;4952860;28;20432;-69
2023/05/05 09:32:47;;;;;;;5.70;1.90;;;;;;;20.16;46.95;101589.66;4947711;28;20407;-68
2023/05/05 09:35:13;;;;;;;5.47;1.90;;;;;;;20.16;46.76;101589.66;4953419;28;20209;-66
2023/05/05 09:37:38;;;;;;;9.07;2.40;;;;;;;20.16;46.90;101592.31;4948300;28;20122;-65
2023/05/05 09:40:05;;;;;;;7.15;2.28;;;;;;;20.13;47.11;101591.72;4957462;28;20435;-67
2023/05/05 09:42:31;;;;;;;4.82;1.98;;;;;;;20.11;46.98;101582.09;4952239;28;20038;-67
2023/05/05 09:44:56;;;;;;;8.55;2.10;;;;;;;20.15;46.86;101589.78;4960512;28;20085;-64
2023/05/05 09:47:33;;;;;;;4.13;1.92;;;;;;;20.18;46.84;101590.38;4954627;28;20090;-65
2023/05/05 09:49:58;;;;;;;4.10;1.90;;;;;;;20.21;46.69;101591.94;4956432;28;20031;-65
2023/05/05 09:52:24;;;;;;;4.35;2.15;;;;;;;20.22;46.64;101597.13;4981718;28;20093;-66
2023/05/05 09:54:55;;;;;;;4.32;2.22;;;;;;;20.15;46.89;101587.97;4952164;28;20086;-67
2023/05/05 09:57:33;;;;;;;6.85;1.80;;;;;;;20.10;46.98;101583.03;4946399;28;20071;-67
2023/05/05 10:00:00;;;;;;;4.47;2.00;;;;;;;20.15;46.96;101581.84;4953017;28;20078;-68
2023/05/05 10:02:34;;;;;;;5.45;2.00;;;;;;;20.12;47.54;101588.22;4952096;28;20053;-67
2023/05/05 10:05:10;;;;;;;7.28;2.13;;;;;;;20.12;47.62;101577.63;4950412;28;20034;-68
2023/05/05 10:07:37;;;;;;;7.22;1.90;;;;;;;20.12;47.87;101590.84;4950335;28;20030;-66
2023/05/05 10:10:04;;;;;;;3.47;1.60;;;;;;;20.11;47.61;101586.53;4953067;28;20031;-66
2023/05/05 10:12:30;;;;;;;3.08;1.58;;;;;;;20.13;47.47;101587.25;4980583;28;20439;-68
2023/05/05 10:14:56;;;;;;;5.00;2.15;;;;;;;20.13;47.54;101583.78;4948641;28;20122;-67
2023/05/05 10:17:22;;;;;;;3.85;1.60;;;;;;;20.14;47.47;101583.66;4946811;28;20126;-68
2023/05/05 10:19:55;;;;;;;4.30;1.92;;;;;;;20.13;47.51;101583.78;4951727;28;20045;-68
2023/05/05 10:22:22;;;;;;;3.97;1.90;;;;;;;20.14;47.61;101585.44;4950181;28;20063;-68
2023/05/05 10:25:23;;;;;;;5.28;1.75;;;;;;;20.10;47.81;101577.75;4953034;28;20054;-68
2023/05/05 10:27:57;;;;;;;3.85;1.65;;;;;;;20.13;47.60;101586.44;4968873;28;20131;-69
2023/05/05 10:30:28;;;;;;;4.30;1.83;;;;;;;20.16;47.72;101579.09;4951459;28;20706;-68
2023/05/05 10:33:08;;;;;;;5.40;1.95;;;;;;;20.15;47.89;101587.13;4948038;28;20114;-69
2023/05/05 10:35:36;;;;;;;4.10;1.70;;;;;;;20.17;47.83;101595.78;4955167;28;20026;-69
2023/05/05 10:38:05;;;;;;;3.38;1.55;;;;;;;20.20;47.82;101601.72;4959281;28;20081;-67
2023/05/05 10:40:31;;;;;;;3.00;1.60;;;;;;;20.22;48.31;101606.84;4956850;28;20039;-66
2023/05/05 10:42:57;;;;;;;3.40;1.80;;;;;;;20.22;48.14;101612.16;4949838;28;20050;-67
2023/05/05 10:45:22;;;;;;;3.63;1.58;;;;;;;20.23;48.40;101613.84;4953225;28;20059;-66
2023/05/05 10:47:49;;;;;;;5.07;1.55;;;;;;;20.25;48.13;101610.13;4956603;28;20356;-66
2023/05/05 10:50:37;;;;;;;5.50;2.08;;;;;;;20.27;48.35;101610.84;4957072;28;20042;-66
2023/05/05 10:53:18;;;;;;;4.75;1.60;;;;;;;20.24;49.07;101613.72;4955155;28;20041;-67
2023/05/05 10:55:52;;;;;;;8.93;1.95;;;;;;;20.23;49.47;101605.91;4962713;28;20050;-69
2023/05/05 10:58:38;;;;;;;7.80;1.90;;;;;;;20.26;49.13;101601.19;4950305;28;20113;-68
2023/05/05 11:01:05;;;;;;;5.95;2.55;;;;;;;20.37;48.60;101608.31;4945517;28;20035;-68
2023/05/05 11:03:30;;;;;;;6.25;2.13;;;;;;;20.43;48.24;101615.75;4949483;28;20126;-66
2023/05/05 11:06:07;;;;;;;7.03;2.00;;;;;;;20.47;48.70;101625.16;4945821;28;20484;-67
2023/05/05 11:08:34;;;;;;;4.80;2.20;;;;;;;20.51;48.20;101622.28;4947444;28;20491;-65
2023/05/05 11:11:00;;;;;;;5.05;1.90;;;;;;;20.52;48.18;101618.63;4958213;28;20034;-67
2023/05/05 11:13:25;;;;;;;5.93;2.85;;;;;;;20.49;48.13;101614.44;4947658;28;20089;-67
2023/05/05 11:15:53;;;;;;;6.68;1.75;;;;;;;20.48;48.09;101621.53;4965073;28;20026;-66
2023/05/05 11:18:29;;;;;;;5.22;1.90;;;;;;;20.47;48.56;101626.94;4965474;28;20126;-68
2023/05/05 11:21:00;;;;;;;5.72;2.20;;;;;;;20.48;48.47;101628.66;4959526;28;20476;-65
2023/05/05 11:23:27;;;;;;;7.78;2.63;;;;;;;20.45;48.50;101616.47;4964953;28;20034;-69
2023/05/05 11:25:53;;;;;;;5.05;1.90;;;;;;;20.44;48.81;101620.09;4963131;28;20146;-69
2023/05/05 11:28:24;;;;;;;5.20;2.20;;;;;;;20.41;48.65;101616.84;4952056;28;20038;-69